»·PEaware :: AXX1354 KLAS-KLAX

AXX1354 :: KLAS-KLAX

FLIGHT INFORMATION

Flight Status: Arrived
Operator: Unknown
More flights by this operator :: More flights under this callsign
Pilot: Chris Morrow (15924)
Aircraft: DEHAVILLAND DASH 8 400
(DH8D)
More flights by this aircraft type
Origin: KLAS McCarran Intl
United States
Destination: KLAX Los Angeles Intl
United States
More flights between these airports :: More routes between these airports
Route: +MCCRN4 LAS GFS DAG PMD KIMMO3
File this flight plan on PilotEdge
Remarks: FIRST FLIGHT WITH DH8D
Altitude:
(Current/Filed)
16,000ft
Speed:
(Current/Filed)
350kts
Departed: 12-Aug-17 05:34 PM
Arrived: 12-Aug-17 06:43 PM
Distance/Time
Traveled:
205nm/1:09
Distance/Time
To Go:
Arrived

Flight Plot

Page will automatically refresh every two minutes.

Flight plan parsing failed; only flown route is shown


Map Options




Map Legend


Flown Route
Filed Route
Departure Airport
Arrival Airport
Navaid (VOR, NDB)
Fix

Horizontal Profiles

Position Reports

Time Latitude Longitude Heading Altitude Ground
Speed
12-Aug-17 16:53 36.099188 -115.162417 178 2148ft 0kts
12-Aug-17 16:54 36.099188 -115.162417 178 2148ft 0kts
12-Aug-17 16:55 36.099188 -115.162417 178 2148ft 0kts
12-Aug-17 16:56 36.099188 -115.162417 178 2148ft 0kts
12-Aug-17 16:57 36.099188 -115.162417 178 2148ft 0kts
12-Aug-17 16:58 36.099188 -115.162417 178 2148ft 0kts
12-Aug-17 16:59 36.099188 -115.162417 178 2148ft 0kts
12-Aug-17 17:00 36.099188 -115.162417 178 2148ft 0kts
12-Aug-17 17:02 36.099188 -115.162417 178 2148ft 0kts
12-Aug-17 17:03 36.099188 -115.162417 178 2148ft 0kts
12-Aug-17 17:04 36.099188 -115.162417 178 2148ft 0kts
12-Aug-17 17:05 36.099188 -115.162417 178 2148ft 0kts
12-Aug-17 17:06 36.099188 -115.162417 178 2148ft 0kts
12-Aug-17 17:07 36.099188 -115.162417 178 2148ft 0kts
12-Aug-17 17:08 36.099188 -115.162417 178 2148ft 0kts
12-Aug-17 17:09 36.099188 -115.162417 178 2148ft 0kts
12-Aug-17 17:10 36.099188 -115.162417 178 2148ft 0kts
12-Aug-17 17:11 36.099188 -115.162417 178 2148ft 0kts
12-Aug-17 17:12 36.099188 -115.162417 178 2148ft 0kts
12-Aug-17 17:13 36.099188 -115.162417 178 2148ft 0kts
12-Aug-17 17:14 36.099188 -115.162417 178 2148ft 0kts
12-Aug-17 17:15 36.099188 -115.162417 178 2148ft 0kts
12-Aug-17 17:16 36.099188 -115.162417 178 2148ft 0kts
12-Aug-17 17:17 36.099188 -115.162417 178 2148ft 0kts
12-Aug-17 17:18 36.099188 -115.162417 178 2148ft 0kts
12-Aug-17 17:19 36.099188 -115.162417 178 2148ft 0kts
12-Aug-17 17:20 36.099188 -115.162417 178 2148ft 0kts
12-Aug-17 17:21 36.099188 -115.162417 178 2148ft 0kts
12-Aug-17 17:22 36.099188 -115.162417 178 2148ft 0kts
12-Aug-17 17:23 36.099188 -115.162417 178 2148ft 0kts
12-Aug-17 17:24 36.099188 -115.162417 178 2148ft 0kts
12-Aug-17 17:25 36.099188 -115.162417 178 2148ft 0kts
12-Aug-17 17:26 36.099188 -115.162417 178 2148ft 0kts
12-Aug-17 17:27 36.099188 -115.162417 178 2148ft 0kts
12-Aug-17 17:28 36.099188 -115.162417 178 2148ft 0kts
12-Aug-17 17:29 36.099188 -115.162417 178 2148ft 0kts
12-Aug-17 17:30 36.095569 -115.162643 179 2148ft 0kts
12-Aug-17 17:30 36.093102 -115.162529 205 2148ft 20kts
12-Aug-17 17:32 36.086980 -115.166110 205 2148ft 19kts
12-Aug-17 17:33 36.082082 -115.168865 204 2148ft 18kts
12-Aug-17 17:34 36.077438 -115.171237 179 2148ft 4kts
12-Aug-17 17:35 36.077427 -115.171237 179 2148ft 0kts
12-Aug-17 17:36 36.077427 -115.171237 179 2148ft 0kts
12-Aug-17 17:37 36.076666 -115.171170 162 2148ft 6kts
12-Aug-17 17:37 36.076352 -115.161536 89 2157ft 118kts
12-Aug-17 17:38 36.075597 -115.105756 90 3652ft 169kts
12-Aug-17 17:39 36.075101 -115.047463 89 5293ft 173kts
12-Aug-17 17:40 36.075429 -114.986888 88 6943ft 177kts
12-Aug-17 17:41 36.077188 -114.925670 86 8243ft 181kts
12-Aug-17 17:42 36.073414 -114.865938 141 9423ft 185kts
12-Aug-17 17:43 36.033783 -114.891444 232 10507ft 187kts
12-Aug-17 17:44 36.001428 -114.942421 232 11579ft 190kts
12-Aug-17 17:45 35.968510 -114.994289 232 12568ft 193kts
12-Aug-17 17:46 35.932712 -115.050673 232 13091ft 243kts
12-Aug-17 17:47 35.890491 -115.117136 231 14808ft 248kts
12-Aug-17 17:48 35.847429 -115.184887 231 16322ft 255kts
12-Aug-17 17:49 35.803762 -115.253558 231 16890ft 256kts
12-Aug-17 17:50 35.739196 -115.264815 170 16757ft 256kts
12-Aug-17 17:51 35.668826 -115.252939 172 16375ft 254kts
12-Aug-17 17:52 35.593517 -115.242016 173 16208ft 302kts
12-Aug-17 17:53 35.504111 -115.229301 173 16201ft 342kts
12-Aug-17 17:54 35.407229 -115.215555 173 16194ft 357kts
12-Aug-17 17:55 35.307896 -115.201491 173 16193ft 361kts
12-Aug-17 17:56 35.208188 -115.187409 173 16192ft 363kts
12-Aug-17 17:57 35.130272 -115.243150 249 16196ft 362kts
12-Aug-17 17:58 35.110066 -115.362950 261 16188ft 356kts
12-Aug-17 17:59 35.096066 -115.480815 261 16190ft 347kts
12-Aug-17 18:00 35.082501 -115.596208 261 16191ft 344kts
12-Aug-17 18:01 35.069666 -115.704603 261 16191ft 343kts
12-Aug-17 18:02 35.055988 -115.819201 261 16192ft 342kts
12-Aug-17 18:03 35.042216 -115.933649 261 16149ft 343kts
12-Aug-17 18:04 35.028261 -116.048682 261 16127ft 343kts
12-Aug-17 18:05 35.014506 -116.163119 261 16128ft 342kts
12-Aug-17 18:06 35.000533 -116.277183 261 16128ft 342kts
12-Aug-17 18:07 34.986333 -116.391493 261 16128ft 342kts
12-Aug-17 18:08 34.971944 -116.506387 261 16128ft 342kts
12-Aug-17 18:09 34.953889 -116.619724 254 16128ft 342kts
12-Aug-17 18:10 34.929155 -116.731867 255 16128ft 343kts
12-Aug-17 18:11 34.904712 -116.843994 255 16128ft 344kts
12-Aug-17 18:12 34.880007 -116.956857 255 16128ft 344kts
12-Aug-17 18:13 34.855235 -117.069486 255 16128ft 345kts
12-Aug-17 18:14 34.830769 -117.181501 254 16057ft 347kts
12-Aug-17 18:15 34.805996 -117.293311 254 15975ft 319kts
12-Aug-17 18:16 34.784580 -117.389250 254 15116ft 286kts
12-Aug-17 18:17 34.763878 -117.481696 254 14034ft 271kts
12-Aug-17 18:18 34.745769 -117.562237 254 14007ft 224kts
12-Aug-17 18:19 34.729508 -117.634310 254 14041ft 233kts
12-Aug-17 18:20 34.710892 -117.716715 254 14039ft 271kts
12-Aug-17 18:21 34.690237 -117.807752 254 14032ft 291kts
12-Aug-17 18:22 34.668227 -117.904375 254 14029ft 301kts
12-Aug-17 18:23 34.646525 -117.999237 254 14015ft 276kts
12-Aug-17 18:24 34.620841 -118.080470 233 13438ft 264kts
12-Aug-17 18:25 34.575230 -118.153989 232 11493ft 278kts
12-Aug-17 18:26 34.528265 -118.229245 232 9520ft 283kts
12-Aug-17 18:27 34.482999 -118.301495 232 8070ft 239kts
12-Aug-17 18:28 34.446846 -118.359103 232 8060ft 197kts
12-Aug-17 18:29 34.408785 -118.396208 157 8079ft 182kts
12-Aug-17 18:30 34.372627 -118.347092 136 7240ft 212kts
12-Aug-17 18:31 34.319937 -118.319855 163 7066ft 200kts
12-Aug-17 18:32 34.268491 -118.303468 164 7065ft 184kts
12-Aug-17 18:33 34.220792 -118.288774 165 7064ft 171kts
12-Aug-17 18:34 34.172907 -118.274576 166 7089ft 190kts
12-Aug-17 18:35 34.127557 -118.238364 142 7086ft 210kts
12-Aug-17 18:36 34.080090 -118.193906 141 6141ft 221kts
12-Aug-17 18:37 34.031735 -118.148536 141 4571ft 212kts
12-Aug-17 18:38 33.989790 -118.109154 141 4073ft 181kts
12-Aug-17 18:39 33.954481 -118.111845 269 4008ft 147kts
12-Aug-17 18:40 33.958659 -118.157298 268 3895ft 153kts
12-Aug-17 18:41 33.954564 -118.213705 263 2977ft 170kts
12-Aug-17 18:42 33.949498 -118.264147 262 2052ft 132kts
12-Aug-17 18:43 33.945138 -118.307273 263 1502ft 142kts
12-Aug-17 18:44 33.940504 -118.352389 262 662ft 129kts
12-Aug-17 18:45 33.936408 -118.392776 265 132ft 85kts
12-Aug-17 18:46 33.934913 -118.401814 229 132ft 0kts
12-Aug-17 18:47 33.934867 -118.401870 220 132ft 5kts
12-Aug-17 18:48 33.934598 -118.397991 82 132ft 18kts
12-Aug-17 18:49 33.934039 -118.393035 184 132ft 8kts
12-Aug-17 18:50 33.934258 -118.393359 30 132ft 0kts
12-Aug-17 18:51 33.934258 -118.393359 30 132ft 0kts
12-Aug-17 18:52 33.934258 -118.393359 30 132ft 0kts
12-Aug-17 18:53 33.934258 -118.393359 30 132ft 0kts
12-Aug-17 18:54 33.934258 -118.393359 30 132ft 0kts
12-Aug-17 18:55 33.934258 -118.393359 30 132ft 0kts
12-Aug-17 18:56 33.934258 -118.393359 30 132ft 0kts
12-Aug-17 18:57 33.934258 -118.393359 30 132ft 0kts
12-Aug-17 18:58 33.934258 -118.393359 30 132ft 0kts
12-Aug-17 18:59 33.934258 -118.393359 30 132ft 0kts
12-Aug-17 19:00 33.934258 -118.393359 30 132ft 0kts

Navigation Log

Ident Type
Flight plan parsing failed, navigation log unavailable